sensor_id;sensor_type;location;lat;lon;timestamp;pressure;altitude;pressure_sealevel;temperature;humidity
55010;BME280;40903;51.638;7.528;2023-02-02T00:01:13;101378.31;;;5.63;100.00
55010;BME280;40903;51.638;7.528;2023-02-02T00:03:38;101383.13;;;5.61;100.00
55010;BME280;40903;51.638;7.528;2023-02-02T00:06:03;101376.34;;;5.59;100.00
55010;BME280;40903;51.638;7.528;2023-02-02T00:08:29;101381.63;;;5.65;100.00
55010;BME280;40903;51.638;7.528;2023-02-02T00:10:54;101375.88;;;5.62;100.00
55010;BME280;40903;51.638;7.528;2023-02-02T00:13:21;101380.56;;;5.66;100.00
55010;BME280;40903;51.638;7.528;2023-02-02T00:15:46;101388.66;;;5.66;100.00
55010;BME280;40903;51.638;7.528;2023-02-02T00:18:11;101373.50;;;5.65;100.00
55010;BME280;40903;51.638;7.528;2023-02-02T00:20:37;101378.41;;;5.68;100.00
55010;BME280;40903;51.638;7.528;2023-02-02T00:23:02;101374.88;;;5.68;100.00
55010;BME280;40903;51.638;7.528;2023-02-02T00:25:28;101377.28;;;5.64;100.00
55010;BME280;40903;51.638;7.528;2023-02-02T00:27:53;101373.59;;;5.70;100.00
55010;BME280;40903;51.638;7.528;2023-02-02T00:30:18;101368.66;;;5.67;100.00
55010;BME280;40903;51.638;7.528;2023-02-02T00:32:44;101375.59;;;5.63;100.00
55010;BME280;40903;51.638;7.528;2023-02-02T00:35:12;101370.44;;;5.62;100.00
55010;BME280;40903;51.638;7.528;2023-02-02T00:37:37;101377.72;;;5.61;100.00
55010;BME280;40903;51.638;7.528;2023-02-02T00:40:02;101379.13;;;5.64;100.00
55010;BME280;40903;51.638;7.528;2023-02-02T00:42:27;101373.16;;;5.62;100.00
55010;BME280;40903;51.638;7.528;2023-02-02T00:44:53;101372.91;;;5.63;100.00
55010;BME280;40903;51.638;7.528;2023-02-02T00:47:47;101380.44;;;5.61;100.00
55010;BME280;40903;51.638;7.528;2023-02-02T00:50:22;101375.88;;;5.62;100.00
55010;BME280;40903;51.638;7.528;2023-02-02T00:52:47;101375.28;;;5.60;100.00
55010;BME280;40903;51.638;7.528;2023-02-02T00:55:13;101377.16;;;5.59;100.00
55010;BME280;40903;51.638;7.528;2023-02-02T00:57:38;101367.75;;;5.62;100.00
55010;BME280;40903;51.638;7.528;2023-02-02T01:00:04;101383.25;;;5.66;100.00
55010;BME280;40903;51.638;7.528;2023-02-02T01:02:31;101381.63;;;5.65;100.00
55010;BME280;40903;51.638;7.528;2023-02-02T01:04:56;101378.41;;;5.68;100.00
55010;BME280;40903;51.638;7.528;2023-02-02T01:07:21;101386.28;;;5.69;100.00
55010;BME280;40903;51.638;7.528;2023-02-02T01:09:46;101391.38;;;5.66;100.00
55010;BME280;40903;51.638;7.528;2023-02-02T01:12:12;101396.28;;;5.69;100.00
55010;BME280;40903;51.638;7.528;2023-02-02T01:14:37;101387.34;;;5.68;100.00
55010;BME280;40903;51.638;7.528;2023-02-02T01:17:02;101379.56;;;5.72;100.00
55010;BME280;40903;51.638;7.528;2023-02-02T01:19:29;101384.91;;;5.67;100.00
55010;BME280;40903;51.638;7.528;2023-02-02T01:21:54;101393.59;;;5.69;100.00
55010;BME280;40903;51.638;7.528;2023-02-02T01:24:19;101387.13;;;5.70;100.00
55010;BME280;40903;51.638;7.528;2023-02-02T01:26:44;101383.84;;;5.68;100.00
55010;BME280;40903;51.638;7.528;2023-02-02T01:29:10;101381.69;;;5.70;100.00
55010;BME280;40903;51.638;7.528;2023-02-02T01:31:36;101383.34;;;5.71;100.00
55010;BME280;40903;51.638;7.528;2023-02-02T01:34:01;101397.44;;;5.73;100.00
55010;BME280;40903;51.638;7.528;2023-02-02T01:36:26;101393.09;;;5.72;100.00
55010;BME280;40903;51.638;7.528;2023-02-02T01:38:51;101395.00;;;5.72;100.00
55010;BME280;40903;51.638;7.528;2023-02-02T01:41:18;101396.97;;;5.76;100.00
55010;BME280;40903;51.638;7.528;2023-02-02T01:46:15;101394.63;;;5.79;100.00
55010;BME280;40903;51.638;7.528;2023-02-02T01:48:43;101410.47;;;5.76;100.00
55010;BME280;40903;51.638;7.528;2023-02-02T01:51:12;101408.84;;;5.75;100.00
55010;BME280;40903;51.638;7.528;2023-02-02T01:53:38;101416.72;;;5.76;100.00
55010;BME280;40903;51.638;7.528;2023-02-02T01:56:04;101421.31;;;5.76;100.00
55010;BME280;40903;51.638;7.528;2023-02-02T01:58:32;101417.53;;;5.77;100.00
55010;BME280;40903;51.638;7.528;2023-02-02T02:00:59;101415.91;;;5.76;100.00
55010;BME280;40903;51.638;7.528;2023-02-02T02:03:25;101412.63;;;5.74;100.00
55010;BME280;40903;51.638;7.528;2023-02-02T02:08:36;101420.50;;;5.75;100.00
55010;BME280;40903;51.638;7.528;2023-02-02T02:11:03;101406.13;;;5.75;100.00
55010;BME280;40903;51.638;7.528;2023-02-02T02:13:28;101411.31;;;5.76;100.00
55010;BME280;40903;51.638;7.528;2023-02-02T02:16:23;101409.41;;;5.77;100.00
55010;BME280;40903;51.638;7.528;2023-02-02T02:19:03;101409.22;;;5.78;100.00
55010;BME280;40903;51.638;7.528;2023-02-02T02:21:36;101416.47;;;5.78;100.00
55010;BME280;40903;51.638;7.528;2023-02-02T02:32:39;101404.81;;;5.89;100.00
55010;BME280;40903;51.638;7.528;2023-02-02T02:35:11;101402.69;;;5.91;100.00
55010;BME280;40903;51.638;7.528;2023-02-02T02:37:56;101405.16;;;5.92;100.00
55010;BME280;40903;51.638;7.528;2023-02-02T02:42:50;101404.50;;;6.02;100.00
55010;BME280;40903;51.638;7.528;2023-02-02T02:45:18;101396.41;;;6.02;100.00
55010;BME280;40903;51.638;7.528;2023-02-02T02:47:44;101402.22;;;6.10;100.00
55010;BME280;40903;51.638;7.528;2023-02-02T02:50:10;101401.44;;;6.10;100.00
55010;BME280;40903;51.638;7.528;2023-02-02T02:52:35;101397.16;;;6.14;100.00
55010;BME280;40903;51.638;7.528;2023-02-02T02:55:01;101402.66;;;6.19;100.00
55010;BME280;40903;51.638;7.528;2023-02-02T03:02:41;101416.28;;;6.24;100.00
55010;BME280;40903;51.638;7.528;2023-02-02T03:05:30;101407.91;;;6.25;100.00
55010;BME280;40903;51.638;7.528;2023-02-02T03:08:42;101400.63;;;6.26;100.00
55010;BME280;40903;51.638;7.528;2023-02-02T03:10:43;101410.63;;;6.25;100.00
55010;BME280;40903;51.638;7.528;2023-02-02T03:13:09;101408.25;;;6.29;100.00
55010;BME280;40903;51.638;7.528;2023-02-02T03:15:36;101405.53;;;6.29;100.00
55010;BME280;40903;51.638;7.528;2023-02-02T03:18:04;101412.38;;;6.31;100.00
55010;BME280;40903;51.638;7.528;2023-02-02T03:20:29;101407.75;;;6.32;100.00
55010;BME280;40903;51.638;7.528;2023-02-02T03:22:54;101400.69;;;6.31;100.00
55010;BME280;40903;51.638;7.528;2023-02-02T03:25:19;101405.88;;;6.32;100.00
55010;BME280;40903;51.638;7.528;2023-02-02T03:27:45;101405.59;;;6.34;100.00
55010;BME280;40903;51.638;7.528;2023-02-02T03:30:10;101399.63;;;6.32;100.00
55010;BME280;40903;51.638;7.528;2023-02-02T03:32:36;101398.06;;;6.36;100.00
55010;BME280;40903;51.638;7.528;2023-02-02T03:35:02;101392.63;;;6.36;100.00
55010;BME280;40903;51.638;7.528;2023-02-02T03:37:27;101397.59;;;6.39;100.00
55010;BME280;40903;51.638;7.528;2023-02-02T03:39:53;101392.91;;;6.34;100.00
55010;BME280;40903;51.638;7.528;2023-02-02T03:42:18;101396.53;;;6.40;100.00
55010;BME280;40903;51.638;7.528;2023-02-02T03:44:43;101392.75;;;6.41;100.00
55010;BME280;40903;51.638;7.528;2023-02-02T03:47:08;101394.88;;;6.39;100.00
55010;BME280;40903;51.638;7.528;2023-02-02T03:49:33;101398.16;;;6.41;100.00
55010;BME280;40903;51.638;7.528;2023-02-02T03:51:59;101394.28;;;6.37;100.00
55010;BME280;40903;51.638;7.528;2023-02-02T03:54:25;101387.22;;;6.36;100.00
55010;BME280;40903;51.638;7.528;2023-02-02T03:56:50;101391.25;;;6.33;100.00
55010;BME280;40903;51.638;7.528;2023-02-02T03:59:16;101405.88;;;6.32;100.00
55010;BME280;40903;51.638;7.528;2023-02-02T04:01:41;101399.38;;;6.33;100.00
55010;BME280;40903;51.638;7.528;2023-02-02T04:04:06;101403.97;;;6.33;100.00
55010;BME280;40903;51.638;7.528;2023-02-02T04:06:32;101401.75;;;6.30;100.00
55010;BME280;40903;51.638;7.528;2023-02-02T04:08:57;101406.09;;;6.31;100.00
55010;BME280;40903;51.638;7.528;2023-02-02T04:11:22;101401.19;;;6.28;100.00
55010;BME280;40903;51.638;7.528;2023-02-02T04:13:48;101400.13;;;6.29;100.00
55010;BME280;40903;51.638;7.528;2023-02-02T04:16:13;101407.69;;;6.27;100.00
55010;BME280;40903;51.638;7.528;2023-02-02T04:18:38;101406.59;;;6.28;100.00
55010;BME280;40903;51.638;7.528;2023-02-02T04:21:03;101414.72;;;6.28;100.00
55010;BME280;40903;51.638;7.528;2023-02-02T04:23:29;101407.69;;;6.27;100.00
55010;BME280;40903;51.638;7.528;2023-02-02T04:25:54;101416.03;;;6.25;100.00
55010;BME280;40903;51.638;7.528;2023-02-02T04:28:20;101409.81;;;6.25;100.00
55010;BME280;40903;51.638;7.528;2023-02-02T04:30:46;101412.19;;;6.21;100.00
55010;BME280;40903;51.638;7.528;2023-02-02T04:33:11;101418.75;;;6.25;100.00
55010;BME280;40903;51.638;7.528;2023-02-02T04:35:36;101419.00;;;6.24;100.00
55010;BME280;40903;51.638;7.528;2023-02-02T04:38:02;101416.88;;;6.26;100.00
55010;BME280;40903;51.638;7.528;2023-02-02T04:40:27;101415.69;;;6.22;100.00
55010;BME280;40903;51.638;7.528;2023-02-02T04:42:52;101412.75;;;6.23;100.00
55010;BME280;40903;51.638;7.528;2023-02-02T04:45:17;101407.34;;;6.23;100.00
55010;BME280;40903;51.638;7.528;2023-02-02T04:47:42;101408.97;;;6.24;100.00
55010;BME280;40903;51.638;7.528;2023-02-02T04:50:08;101408.16;;;6.24;100.00
55010;BME280;40903;51.638;7.528;2023-02-02T04:52:33;101404.63;;;6.23;100.00
55010;BME280;40903;51.638;7.528;2023-02-02T04:54:59;101408.75;;;6.26;100.00
55010;BME280;40903;51.638;7.528;2023-02-02T04:57:24;101421.28;;;6.32;100.00
55010;BME280;40903;51.638;7.528;2023-02-02T04:59:49;101418.25;;;6.28;100.00
55010;BME280;40903;51.638;7.528;2023-02-02T05:02:14;101414.81;;;6.33;100.00
55010;BME280;40903;51.638;7.528;2023-02-02T05:04:40;101415.06;;;6.31;100.00
55010;BME280;40903;51.638;7.528;2023-02-02T05:07:05;101423.19;;;6.31;100.00
55010;BME280;40903;51.638;7.528;2023-02-02T05:09:30;101424.22;;;6.30;100.00
55010;BME280;40903;51.638;7.528;2023-02-02T05:11:55;101413.41;;;6.30;100.00
55010;BME280;40903;51.638;7.528;2023-02-02T05:14:20;101413.66;;;6.29;100.00
55010;BME280;40903;51.638;7.528;2023-02-02T05:16:46;101416.94;;;6.31;100.00
55010;BME280;40903;51.638;7.528;2023-02-02T05:19:11;101410.22;;;6.33;100.00
55010;BME280;40903;51.638;7.528;2023-02-02T05:21:36;101411.88;;;6.34;100.00
55010;BME280;40903;51.638;7.528;2023-02-02T05:24:02;101408.31;;;6.34;100.00
55010;BME280;40903;51.638;7.528;2023-02-02T05:26:27;101403.75;;;6.34;100.00
55010;BME280;40903;51.638;7.528;2023-02-02T05:28:53;101405.59;;;6.34;100.00
55010;BME280;40903;51.638;7.528;2023-02-02T05:31:18;101409.47;;;6.38;100.00
55010;BME280;40903;51.638;7.528;2023-02-02T05:33:44;101397.59;;;6.39;100.00
55010;BME280;40903;51.638;7.528;2023-02-02T05:36:09;101394.38;;;6.42;100.00
55010;BME280;40903;51.638;7.528;2023-02-02T05:38:34;101389.88;;;6.47;100.00
55010;BME280;40903;51.638;7.528;2023-02-02T05:41:00;101387.16;;;6.47;100.00
55010;BME280;40903;51.638;7.528;2023-02-02T05:43:25;101390.75;;;6.53;100.00
55010;BME280;40903;51.638;7.528;2023-02-02T05:45:51;101388.03;;;6.53;100.00
55010;BME280;40903;51.638;7.528;2023-02-02T05:48:16;101385.31;;;6.53;100.00
55010;BME280;40903;51.638;7.528;2023-02-02T05:50:42;101399.94;;;6.52;100.00
55010;BME280;40903;51.638;7.528;2023-02-02T05:53:09;101390.91;;;6.63;100.00
55010;BME280;40903;51.638;7.528;2023-02-02T05:55:37;101400.09;;;6.62;100.00
55010;BME280;40903;51.638;7.528;2023-02-02T05:58:02;101396.00;;;6.59;100.00
55010;BME280;40903;51.638;7.528;2023-02-02T06:00:27;101395.34;;;6.69;100.00
55010;BME280;40903;51.638;7.528;2023-02-02T06:02:52;101399.09;;;6.68;100.00
55010;BME280;40903;51.638;7.528;2023-02-02T06:05:17;101400.69;;;6.64;100.00
55010;BME280;40903;51.638;7.528;2023-02-02T06:07:43;101405.03;;;6.65;100.00
55010;BME280;40903;51.638;7.528;2023-02-02T06:10:08;101413.72;;;6.67;100.00
55010;BME280;40903;51.638;7.528;2023-02-02T06:12:33;101407.84;;;6.70;100.00
55010;BME280;40903;51.638;7.528;2023-02-02T06:14:58;101409.72;;;6.69;100.00
55010;BME280;40903;51.638;7.528;2023-02-02T06:17:24;101415.13;;;6.69;100.00
55010;BME280;40903;51.638;7.528;2023-02-02T06:19:49;101412.41;;;6.69;100.00
55010;BME280;40903;51.638;7.528;2023-02-02T06:22:14;101414.63;;;6.72;100.00
55010;BME280;40903;51.638;7.528;2023-02-02T06:24:39;101417.09;;;6.74;100.00
55010;BME280;40903;51.638;7.528;2023-02-02T06:27:04;101405.94;;;6.70;100.00
55010;BME280;40903;51.638;7.528;2023-02-02T06:29:29;101415.13;;;6.69;100.00
55010;BME280;40903;51.638;7.528;2023-02-02T06:31:55;101415.69;;;6.71;100.00
55010;BME280;40903;51.638;7.528;2023-02-02T06:34:20;101427.38;;;6.72;100.00
55010;BME280;40903;51.638;7.528;2023-02-02T06:36:45;101423.59;;;6.73;100.00
55010;BME280;40903;51.638;7.528;2023-02-02T06:39:10;101431.47;;;6.74;100.00
55010;BME280;40903;51.638;7.528;2023-02-02T06:41:35;101421.44;;;6.75;100.00
55010;BME280;40903;51.638;7.528;2023-02-02T06:44:01;101434.44;;;6.73;100.00
55010;BME280;40903;51.638;7.528;2023-02-02T06:46:26;101437.72;;;6.75;100.00
55010;BME280;40903;51.638;7.528;2023-02-02T06:48:51;101439.13;;;6.77;100.00
55010;BME280;40903;51.638;7.528;2023-02-02T06:51:17;101444.53;;;6.77;100.00
55010;BME280;40903;51.638;7.528;2023-02-02T06:53:42;101442.91;;;6.76;100.00
55010;BME280;40903;51.638;7.528;2023-02-02T06:56:08;101447.81;;;6.79;100.00
55010;BME280;40903;51.638;7.528;2023-02-02T06:58:35;101452.97;;;6.81;100.00
55010;BME280;40903;51.638;7.528;2023-02-02T07:01:04;101441.31;;;6.80;100.00
55010;BME280;40903;51.638;7.528;2023-02-02T07:03:29;101444.03;;;6.80;100.00
55010;BME280;40903;51.638;7.528;2023-02-02T07:05:55;101443.94;;;6.75;100.00
55010;BME280;40903;51.638;7.528;2023-02-02T07:08:20;101450.75;;;6.78;100.00
55010;BME280;40903;51.638;7.528;2023-02-02T07:10:45;101441.81;;;6.77;100.00
55010;BME280;40903;51.638;7.528;2023-02-02T07:13:11;101445.34;;;6.78;100.00
55010;BME280;40903;51.638;7.528;2023-02-02T07:15:39;101450.75;;;6.78;100.00
55010;BME280;40903;51.638;7.528;2023-02-02T07:18:05;101443.13;;;6.75;100.00
55010;BME280;40903;51.638;7.528;2023-02-02T07:20:30;101454.53;;;6.77;100.00
55010;BME280;40903;51.638;7.528;2023-02-02T07:22:55;101458.66;;;6.79;100.00
55010;BME280;40903;51.638;7.528;2023-02-02T07:25:21;101451.34;;;6.80;100.00
55010;BME280;40903;51.638;7.528;2023-02-02T07:27:46;101450.75;;;6.78;100.00
55010;BME280;40903;51.638;7.528;2023-02-02T07:30:14;101450.75;;;6.78;100.00
55010;BME280;40903;51.638;7.528;2023-02-02T07:32:44;101454.31;;;6.78;100.00
55010;BME280;40903;51.638;7.528;2023-02-02T07:35:09;101458.41;;;6.81;100.00
55010;BME280;40903;51.638;7.528;2023-02-02T07:37:35;101460.88;;;6.82;100.00
55010;BME280;40903;51.638;7.528;2023-02-02T07:40:00;101463.34;;;6.84;100.00
55010;BME280;40903;51.638;7.528;2023-02-02T07:42:25;101457.31;;;6.82;100.00
55010;BME280;40903;51.638;7.528;2023-02-02T07:44:50;101458.41;;;6.81;100.00
55010;BME280;40903;51.638;7.528;2023-02-02T07:47:15;101469.81;;;6.83;100.00
55010;BME280;40903;51.638;7.528;2023-02-02T07:49:41;101465.63;;;6.92;100.00
55010;BME280;40903;51.638;7.528;2023-02-02T07:52:06;101468.00;;;6.88;100.00
55010;BME280;40903;51.638;7.528;2023-02-02T07:54:31;101474.59;;;6.92;100.00
55010;BME280;40903;51.638;7.528;2023-02-02T07:56:56;101476.47;;;6.92;100.00
55010;BME280;40903;51.638;7.528;2023-02-02T07:59:22;101475.91;;;6.90;100.00
55010;BME280;40903;51.638;7.528;2023-02-02T08:01:47;101473.53;;;6.93;100.00
55010;BME280;40903;51.638;7.528;2023-02-02T08:04:12;101479.25;;;6.97;100.00
55010;BME280;40903;51.638;7.528;2023-02-02T08:06:38;101488.16;;;6.92;100.00
55010;BME280;40903;51.638;7.528;2023-02-02T08:09:04;101488.94;;;6.93;100.00
55010;BME280;40903;51.638;7.528;2023-02-02T08:11:31;101478.44;;;6.96;100.00
55010;BME280;40903;51.638;7.528;2023-02-02T08:13:57;101483.03;;;6.96;100.00
55010;BME280;40903;51.638;7.528;2023-02-02T08:16:23;101484.09;;;6.95;100.00
55010;BME280;40903;51.638;7.528;2023-02-02T08:18:49;101486.31;;;6.98;100.00
55010;BME280;40903;51.638;7.528;2023-02-02T08:21:14;101487.38;;;6.97;100.00
55010;BME280;40903;51.638;7.528;2023-02-02T08:23:40;101487.16;;;6.98;100.00
55010;BME280;40903;51.638;7.528;2023-02-02T08:26:06;101493.88;;;6.96;100.00
55010;BME280;40903;51.638;7.528;2023-02-02T08:28:32;101490.94;;;6.97;100.00
55010;BME280;40903;51.638;7.528;2023-02-02T08:31:02;101503.66;;;6.97;100.00
55010;BME280;40903;51.638;7.528;2023-02-02T08:33:28;101507.19;;;6.97;100.00
55010;BME280;40903;51.638;7.528;2023-02-02T08:35:53;101511.31;;;7.00;100.00
55010;BME280;40903;51.638;7.528;2023-02-02T08:38:18;101515.09;;;6.99;100.00
55010;BME280;40903;51.638;7.528;2023-02-02T08:40:43;101505.72;;;7.06;100.00
55010;BME280;40903;51.638;7.528;2023-02-02T08:43:08;101519.50;;;7.05;100.00
55010;BME280;40903;51.638;7.528;2023-02-02T08:45:34;101514.09;;;7.05;100.00
55010;BME280;40903;51.638;7.528;2023-02-02T08:47:59;101522.28;;;7.10;100.00
55010;BME280;40903;51.638;7.528;2023-02-02T08:50:24;101518.03;;;7.14;100.00
55010;BME280;40903;51.638;7.528;2023-02-02T08:52:49;101519.09;;;7.13;100.00
55010;BME280;40903;51.638;7.528;2023-02-02T08:55:15;101529.94;;;7.13;100.00
55010;BME280;40903;51.638;7.528;2023-02-02T08:57:40;101538.56;;;7.10;100.00
55010;BME280;40903;51.638;7.528;2023-02-02T09:00:05;101541.84;;;7.12;100.00
55010;BME280;40903;51.638;7.528;2023-02-02T09:02:31;101550.59;;;7.14;100.00
55010;BME280;40903;51.638;7.528;2023-02-02T09:04:56;101544.00;;;7.10;100.00
55010;BME280;40903;51.638;7.528;2023-02-02T09:07:21;101541.84;;;7.12;100.00
55010;BME280;40903;51.638;7.528;2023-02-02T09:09:47;101550.66;;;7.19;100.00
55010;BME280;40903;51.638;7.528;2023-02-02T09:12:12;101551.22;;;7.21;100.00
55010;BME280;40903;51.638;7.528;2023-02-02T09:14:37;101556.97;;;7.24;100.00
55010;BME280;40903;51.638;7.528;2023-02-02T09:17:02;101553.78;;;7.27;100.00
55010;BME280;40903;51.638;7.528;2023-02-02T09:19:27;101557.56;;;7.26;100.00
55010;BME280;40903;51.638;7.528;2023-02-02T09:21:53;101567.34;;;7.27;100.00
55010;BME280;40903;51.638;7.528;2023-02-02T09:24:18;101568.97;;;7.28;100.00
55010;BME280;40903;51.638;7.528;2023-02-02T09:26:43;101569.88;;;7.34;100.00
55010;BME280;40903;51.638;7.528;2023-02-02T09:29:13;101574.16;;;7.30;100.00
55010;BME280;40903;51.638;7.528;2023-02-02T09:31:38;101576.59;;;7.31;100.00
55010;BME280;40903;51.638;7.528;2023-02-02T09:34:04;101579.09;;;7.33;100.00
55010;BME280;40903;51.638;7.528;2023-02-02T09:36:30;101582.38;;;7.35;100.00
55010;BME280;40903;51.638;7.528;2023-02-02T09:38:56;101586.72;;;7.36;100.00
55010;BME280;40903;51.638;7.528;2023-02-02T09:43:51;101581.47;;;7.46;100.00
55010;BME280;40903;51.638;7.528;2023-02-02T09:48:53;101590.97;;;7.48;100.00
55010;BME280;40903;51.638;7.528;2023-02-02T09:51:22;101604.31;;;7.50;100.00
55010;BME280;40903;51.638;7.528;2023-02-02T09:53:59;101599.69;;;7.50;100.00
55010;BME280;40903;51.638;7.528;2023-02-02T09:56:35;101614.16;;;7.56;100.00
55010;BME280;40903;51.638;7.528;2023-02-02T09:59:02;101619.59;;;7.56;100.00
55010;BME280;40903;51.638;7.528;2023-02-02T10:01:30;101625.34;;;7.59;100.00
55010;BME280;40903;51.638;7.528;2023-02-02T10:03:57;101625.28;;;7.54;100.00
55010;BME280;40903;51.638;7.528;2023-02-02T10:06:27;101638.34;;;7.57;100.00
55010;BME280;40903;51.638;7.528;2023-02-02T10:08:56;101633.72;;;7.58;100.00
55010;BME280;40903;51.638;7.528;2023-02-02T10:11:30;101632.34;;;7.55;100.00
55010;BME280;40903;51.638;7.528;2023-02-02T10:13:58;101639.09;;;7.53;100.00
55010;BME280;40903;51.638;7.528;2023-02-02T10:16:25;101635.06;;;7.55;100.00
55010;BME280;40903;51.638;7.528;2023-02-02T10:19:02;101639.66;;;7.55;100.00
55010;BME280;40903;51.638;7.528;2023-02-02T10:21:32;101647.56;;;7.56;100.00
55010;BME280;40903;51.638;7.528;2023-02-02T10:24:00;101649.13;;;7.52;100.00
55010;BME280;40903;51.638;7.528;2023-02-02T10:26:33;101644.78;;;7.51;100.00
55010;BME280;40903;51.638;7.528;2023-02-02T10:44:36;101660.88;;;7.58;100.00
55010;BME280;40903;51.638;7.528;2023-02-02T10:47:08;101667.97;;;7.59;100.00
55010;BME280;40903;51.638;7.528;2023-02-02T10:57:09;101670.41;;;7.60;100.00
55010;BME280;40903;51.638;7.528;2023-02-02T10:59:38;101674.44;;;7.58;100.00
55010;BME280;40903;51.638;7.528;2023-02-02T11:02:11;101675.28;;;7.58;100.00
55010;BME280;40903;51.638;7.528;2023-02-02T11:04:36;101678.00;;;7.58;100.00
55010;BME280;40903;51.638;7.528;2023-02-02T11:07:20;101675.59;;;7.62;100.00
55010;BME280;40903;51.638;7.528;2023-02-02T11:09:45;101678.00;;;7.58;100.00
55010;BME280;40903;51.638;7.528;2023-02-02T11:12:22;101683.66;;;7.57;100.00
55010;BME280;40903;51.638;7.528;2023-02-02T11:14:53;101681.03;;;7.62;100.00
55010;BME280;40903;51.638;7.528;2023-02-02T11:17:21;101679.69;;;7.64;100.00
55010;BME280;40903;51.638;7.528;2023-02-02T11:19:47;101669.69;;;7.65;100.00
55010;BME280;40903;51.638;7.528;2023-02-02T11:22:24;101689.25;;;7.67;100.00
55010;BME280;40903;51.638;7.528;2023-02-02T11:24:49;101685.47;;;7.68;100.00
55010;BME280;40903;51.638;7.528;2023-02-02T11:27:18;101691.41;;;7.65;100.00
55010;BME280;40903;51.638;7.528;2023-02-02T11:29:48;101683.25;;;7.65;100.00
55010;BME280;40903;51.638;7.528;2023-02-02T11:37:28;101682.00;;;7.72;100.00
55010;BME280;40903;51.638;7.528;2023-02-02T11:39:54;101681.09;;;7.67;100.00
55010;BME280;40903;51.638;7.528;2023-02-02T11:42:20;101678.63;;;7.65;100.00
55010;BME280;40903;51.638;7.528;2023-02-02T11:44:49;101679.47;;;7.66;100.00
55010;BME280;40903;51.638;7.528;2023-02-02T11:47:19;101682.75;;;7.68;100.00
55010;BME280;40903;51.638;7.528;2023-02-02T11:49:45;101676.59;;;7.72;100.00
55010;BME280;40903;51.638;7.528;2023-02-02T11:52:15;101683.81;;;7.67;100.00
55010;BME280;40903;51.638;7.528;2023-02-02T11:54:44;101688.19;;;7.68;100.00
55010;BME280;40903;51.638;7.528;2023-02-02T11:57:14;101683.50;;;7.63;100.00
55010;BME280;40903;51.638;7.528;2023-02-02T11:59:41;101685.97;;;7.65;100.00
55010;BME280;40903;51.638;7.528;2023-02-02T12:04:48;101683.59;;;7.68;100.00
55010;BME280;40903;51.638;7.528;2023-02-02T12:07:22;101682.50;;;7.69;100.00
55010;BME280;40903;51.638;7.528;2023-02-02T12:09:48;101686.31;;;7.68;100.00
55010;BME280;40903;51.638;7.528;2023-02-02T12:20:02;101695.81;;;7.70;100.00
55010;BME280;40903;51.638;7.528;2023-02-02T12:35:21;101691.97;;;7.67;100.00
55010;BME280;40903;51.638;7.528;2023-02-02T12:51:14;101704.13;;;7.64;100.00
55010;BME280;40903;51.638;7.528;2023-02-02T12:54:11;101698.47;;;7.66;100.00
55010;BME280;40903;51.638;7.528;2023-02-02T12:56:50;101698.47;;;7.66;100.00
55010;BME280;40903;51.638;7.528;2023-02-02T13:04:51;101702.31;;;7.69;100.00
55010;BME280;40903;51.638;7.528;2023-02-02T13:07:27;101698.81;;;7.69;100.00
55010;BME280;40903;51.638;7.528;2023-02-02T13:10:03;101689.31;;;7.71;100.00
55010;BME280;40903;51.638;7.528;2023-02-02T13:12:31;101684.41;;;7.68;100.00
55010;BME280;40903;51.638;7.528;2023-02-02T13:15:00;101692.03;;;7.71;100.00
55010;BME280;40903;51.638;7.528;2023-02-02T13:17:40;101690.66;;;7.69;100.00
55010;BME280;40903;51.638;7.528;2023-02-02T13:20:13;101694.75;;;7.71;100.00
55010;BME280;40903;51.638;7.528;2023-02-02T13:22:40;101693.09;;;7.70;100.00
55010;BME280;40903;51.638;7.528;2023-02-02T13:25:29;101694.84;;;7.76;100.00
55010;BME280;40903;51.638;7.528;2023-02-02T13:27:53;101693.44;;;7.74;100.00
55010;BME280;40903;51.638;7.528;2023-02-02T13:30:26;101704.53;;;7.72;100.00
55010;BME280;40903;51.638;7.528;2023-02-02T13:32:53;101704.31;;;7.74;100.00
55010;BME280;40903;51.638;7.528;2023-02-02T13:35:23;101710.31;;;7.76;100.00
55010;BME280;40903;51.638;7.528;2023-02-02T13:43:18;101712.22;;;7.75;100.00
55010;BME280;40903;51.638;7.528;2023-02-02T13:51:04;101713.34;;;7.79;100.00
55010;BME280;40903;51.638;7.528;2023-02-02T14:01:00;101711.44;;;7.80;100.00
55010;BME280;40903;51.638;7.528;2023-02-02T14:03:28;101709.00;;;7.78;100.00
55010;BME280;40903;51.638;7.528;2023-02-02T14:11:23;101726.84;;;7.74;100.00
55010;BME280;40903;51.638;7.528;2023-02-02T14:13:51;101733.09;;;7.75;100.00
55010;BME280;40903;51.638;7.528;2023-02-02T14:19:02;101719.03;;;7.78;100.00
55010;BME280;40903;51.638;7.528;2023-02-02T14:23:56;101722.56;;;7.78;100.00
55010;BME280;40903;51.638;7.528;2023-02-02T14:31:53;101732.88;;;7.76;100.00
55010;BME280;40903;51.638;7.528;2023-02-02T14:34:25;101732.34;;;7.79;100.00
55010;BME280;40903;51.638;7.528;2023-02-02T14:36:57;101729.16;;;7.82;100.00
55010;BME280;40903;51.638;7.528;2023-02-02T14:39:25;101736.72;;;7.80;100.00
55010;BME280;40903;51.638;7.528;2023-02-02T14:45:11;101744.63;;;7.82;100.00
55010;BME280;40903;51.638;7.528;2023-02-02T14:47:46;101739.44;;;7.80;100.00
55010;BME280;40903;51.638;7.528;2023-02-02T14:50:55;101740.00;;;7.82;100.00
55010;BME280;40903;51.638;7.528;2023-02-02T14:53:02;101755.97;;;7.79;100.00
55010;BME280;40903;51.638;7.528;2023-02-02T14:55:28;101758.44;;;7.80;100.00
55010;BME280;40903;51.638;7.528;2023-02-02T14:57:55;101760.00;;;7.76;100.00
55010;BME280;40903;51.638;7.528;2023-02-02T15:00:22;101772.19;;;7.74;100.00
55010;BME280;40903;51.638;7.528;2023-02-02T15:02:48;101770.28;;;7.74;100.00
55010;BME280;40903;51.638;7.528;2023-02-02T15:13:21;101780.50;;;7.84;100.00